createdAt,value
2022-10-18T00:02:07.491Z,18.65
2022-10-18T00:04:34.029Z,15.95
2022-10-18T00:07:00.596Z,16.92
2022-10-18T00:09:27.153Z,17.83
2022-10-18T00:11:54.248Z,18.42
2022-10-18T00:14:20.756Z,17.20
2022-10-18T00:16:47.183Z,16.65
2022-10-18T00:19:15.358Z,14.55
2022-10-18T00:21:42.228Z,18.02
2022-10-18T00:24:08.903Z,16.13
2022-10-18T00:26:35.368Z,17.05
2022-10-18T00:29:04.387Z,15.77
2022-10-18T00:31:32.772Z,18.40
2022-10-18T00:34:01.984Z,19.45
2022-10-18T00:36:31.602Z,16.73
2022-10-18T00:38:58.424Z,20.08
2022-10-18T00:41:27.327Z,15.80
2022-10-18T00:43:56.784Z,17.88
2022-10-18T00:46:24.576Z,17.85
2022-10-18T00:48:52.422Z,17.17
2022-10-18T00:51:21.213Z,22.30
2022-10-18T00:53:49.336Z,17.13
2022-10-18T00:56:15.759Z,18.83
2022-10-18T00:58:42.818Z,17.67
2022-10-18T01:01:09.393Z,19.05
2022-10-18T01:03:36.956Z,17.55
2022-10-18T01:06:03.543Z,21.40
2022-10-18T01:08:45.058Z,16.58
2022-10-18T01:11:25.897Z,19.17
2022-10-18T01:14:01.594Z,15.27
2022-10-18T01:16:36.636Z,15.02
2022-10-18T01:19:12.474Z,16.08
2022-10-18T01:21:44.444Z,19.33
2022-10-18T01:24:45.668Z,16.25
2022-10-18T01:27:34.901Z,17.05
2022-10-18T01:30:34.666Z,19.52
2022-10-18T01:33:07.200Z,17.05
2022-10-18T01:35:39.470Z,20.23
2022-10-18T01:38:11.237Z,15.45
2022-10-18T01:40:40.018Z,16.52
2022-10-18T01:43:09.397Z,16.90
2022-10-18T01:45:37.183Z,18.58
2022-10-18T01:48:04.309Z,15.88
2022-10-18T01:50:33.105Z,18.90
2022-10-18T01:53:00.099Z,19.38
2022-10-18T01:55:33.524Z,18.48
2022-10-18T01:58:05.810Z,17.60
2022-10-18T02:00:39.929Z,18.77
2022-10-18T02:03:15.255Z,20.77
2022-10-18T02:05:48.110Z,19.33
2022-10-18T02:08:23.973Z,20.08
2022-10-18T02:10:55.358Z,20.38
2022-10-18T02:13:23.267Z,19.58
2022-10-18T02:15:57.389Z,17.00
2022-10-18T02:18:28.976Z,16.80
2022-10-18T02:20:56.326Z,22.67
2022-10-18T02:23:25.825Z,19.67
2022-10-18T02:25:53.213Z,19.13
2022-10-18T02:28:20.399Z,26.75
2022-10-18T02:30:57.653Z,19.75
2022-10-18T02:33:32.945Z,24.88
2022-10-18T02:36:04.490Z,20.00
2022-10-18T02:38:32.158Z,16.60
2022-10-18T02:40:59.159Z,17.85
2022-10-18T02:43:25.661Z,17.60
2022-10-18T02:45:53.574Z,17.30
2022-10-18T02:48:20.093Z,18.83
2022-10-18T02:50:46.499Z,22.83
2022-10-18T02:53:12.931Z,19.25
2022-10-18T02:55:39.385Z,16.40
2022-10-18T02:58:05.797Z,16.50
2022-10-18T03:00:32.206Z,19.45
2022-10-18T03:02:59.939Z,18.52
2022-10-18T03:05:26.520Z,22.13
2022-10-18T03:07:52.932Z,20.40
2022-10-18T03:10:19.335Z,21.95
2022-10-18T03:12:45.744Z,19.10
2022-10-18T03:15:12.145Z,23.38
2022-10-18T03:17:38.543Z,23.67
2022-10-18T03:20:07.655Z,19.98
2022-10-18T03:22:34.034Z,20.77
2022-10-18T03:25:00.602Z,22.20
2022-10-18T03:27:27.183Z,19.95
2022-10-18T03:29:53.556Z,23.98
2022-10-18T03:32:19.933Z,20.55
2022-10-18T03:34:46.405Z,19.85
2022-10-18T03:37:14.273Z,26.95
2022-10-18T03:39:40.659Z,20.23
2022-10-18T03:42:07.082Z,21.40
2022-10-18T03:44:33.478Z,23.52
2022-10-18T03:46:59.886Z,24.50
2022-10-18T03:49:26.338Z,22.33
2022-10-18T03:51:52.773Z,23.00
2022-10-18T03:54:20.604Z,23.23
2022-10-18T03:56:47.011Z,27.27
2022-10-18T03:59:13.474Z,25.70
2022-10-18T04:01:39.916Z,26.13
2022-10-18T04:04:06.382Z,22.48
2022-10-18T04:06:32.816Z,26.38
2022-10-18T04:08:59.204Z,25.23
2022-10-18T04:11:27.032Z,29.98
2022-10-18T04:13:53.413Z,32.90
2022-10-18T04:16:19.800Z,25.35
2022-10-18T04:18:46.240Z,27.48
2022-10-18T04:21:12.651Z,27.55
2022-10-18T04:23:39.292Z,25.58
2022-10-18T04:26:06.112Z,27.83
2022-10-18T04:28:34.996Z,29.75
2022-10-18T04:31:01.450Z,25.67
2022-10-18T04:33:28.015Z,31.33
2022-10-18T04:35:54.403Z,28.73
2022-10-18T04:38:20.811Z,27.98
2022-10-18T04:40:47.215Z,28.80
2022-10-18T04:43:13.795Z,33.40
2022-10-18T04:45:41.554Z,30.00
2022-10-18T04:48:07.966Z,31.38
2022-10-18T04:50:34.364Z,29.10
2022-10-18T04:53:00.779Z,33.35
2022-10-18T04:55:27.314Z,32.80
2022-10-18T04:57:53.713Z,33.00
2022-10-18T05:00:20.384Z,32.95
2022-10-18T05:02:48.143Z,33.13
2022-10-18T05:05:14.854Z,35.33
2022-10-18T05:07:41.399Z,32.65
2022-10-18T05:10:08.932Z,28.67
2022-10-18T05:12:35.399Z,28.58
2022-10-18T05:15:01.932Z,33.22
2022-10-18T05:17:28.405Z,34.13
2022-10-18T05:19:56.168Z,30.25
2022-10-18T05:22:22.564Z,31.25
2022-10-18T05:24:48.964Z,30.77
2022-10-18T05:27:15.371Z,37.40
2022-10-18T05:29:41.840Z,37.05
2022-10-18T05:32:08.268Z,32.17
2022-10-18T05:34:34.714Z,33.97
2022-10-18T05:37:02.542Z,33.63
2022-10-18T05:39:29.096Z,35.00
2022-10-18T05:41:55.570Z,32.90
2022-10-18T05:44:22.215Z,36.22
2022-10-18T05:46:48.715Z,33.25
2022-10-18T05:49:15.145Z,36.90
2022-10-18T05:51:41.550Z,33.90
2022-10-18T05:54:11.250Z,29.77
2022-10-18T05:59:09.456Z,34.35
2022-10-18T06:01:35.946Z,35.92
2022-10-18T06:04:02.381Z,34.85
2022-10-18T06:06:28.946Z,35.20
2022-10-18T06:08:55.363Z,34.13
2022-10-18T06:11:23.478Z,34.83
2022-10-18T06:13:51.642Z,39.47
2022-10-18T06:16:20.069Z,33.92
2022-10-18T06:18:48.105Z,38.55
2022-10-18T06:21:14.612Z,36.30
2022-10-18T06:23:41.070Z,37.35
2022-10-18T06:26:10.222Z,40.42
2022-10-18T06:28:38.307Z,40.13
2022-10-18T06:31:06.144Z,35.95
2022-10-18T06:33:33.552Z,36.13
2022-10-18T06:36:01.867Z,34.83
2022-10-18T06:38:29.347Z,34.78
2022-10-18T06:40:56.891Z,35.22
2022-10-18T06:43:23.479Z,40.67
2022-10-18T06:45:51.664Z,36.28
2022-10-18T06:50:51.435Z,51.03
2022-10-18T06:53:17.859Z,39.05
2022-10-18T06:55:44.302Z,36.13
2022-10-18T06:58:10.737Z,37.35
2022-10-18T07:00:37.183Z,38.08
2022-10-18T07:03:05.139Z,39.40
2022-10-18T07:07:59.470Z,42.35
2022-10-18T07:10:25.936Z,42.70
2022-10-18T07:12:59.235Z,39.00
2022-10-18T07:15:34.676Z,41.38
2022-10-18T07:18:01.147Z,41.80
2022-10-18T07:20:28.959Z,38.45
2022-10-18T07:22:55.793Z,45.40
2022-10-18T07:25:23.926Z,41.33
2022-10-18T07:27:52.751Z,36.08
2022-10-18T07:30:19.395Z,43.60
2022-10-18T07:32:45.801Z,39.78
2022-10-18T07:37:44.844Z,45.35
2022-10-18T07:40:12.157Z,42.22
2022-10-18T07:42:38.704Z,41.45
2022-10-18T07:45:05.540Z,37.78
2022-10-18T07:47:35.097Z,40.70
2022-10-18T07:50:01.858Z,42.88
2022-10-18T07:52:28.249Z,41.95
2022-10-18T07:54:56.033Z,38.90
2022-10-18T07:57:22.435Z,41.67
2022-10-18T07:59:48.960Z,42.15
2022-10-18T08:02:15.380Z,40.60
2022-10-18T08:04:41.787Z,40.65
2022-10-18T08:07:08.179Z,42.17
2022-10-18T08:09:34.625Z,42.05
2022-10-18T08:12:02.351Z,35.63
2022-10-18T08:14:29.196Z,37.28
2022-10-18T08:16:56.188Z,39.88
2022-10-18T08:19:22.991Z,37.65
2022-10-18T08:21:49.448Z,36.10
2022-10-18T08:24:16.064Z,38.72
2022-10-18T08:26:42.494Z,36.50
2022-10-18T08:29:22.166Z,33.55
2022-10-18T08:31:50.753Z,34.05
2022-10-18T08:34:19.672Z,33.53
2022-10-18T08:36:46.668Z,35.85
2022-10-18T08:39:13.106Z,40.15
2022-10-18T08:41:53.700Z,34.05
2022-10-18T08:44:24.342Z,32.88
2022-10-18T08:46:53.001Z,35.08
2022-10-18T08:49:25.095Z,33.17
2022-10-18T08:51:51.861Z,25.48
2022-10-18T08:54:25.755Z,29.92
2022-10-18T08:56:58.848Z,31.23
2022-10-18T08:59:31.960Z,33.05
2022-10-18T09:02:05.319Z,30.63
2022-10-18T09:04:41.338Z,30.23
2022-10-18T09:07:32.009Z,29.50
2022-10-18T09:10:08.316Z,30.85
2022-10-18T09:12:51.208Z,30.58
2022-10-18T09:15:27.785Z,30.73
2022-10-18T09:18:08.998Z,31.50
2022-10-18T09:20:47.259Z,34.15
2022-10-18T09:23:19.183Z,31.58
2022-10-18T09:25:47.796Z,32.45
2022-10-18T09:28:19.268Z,35.72
2022-10-18T09:30:57.220Z,29.85
2022-10-18T09:33:39.096Z,32.83
2022-10-18T09:36:08.557Z,32.58
2022-10-18T09:38:46.213Z,33.35
2022-10-18T09:41:18.981Z,28.25
2022-10-18T09:43:54.344Z,30.80
2022-10-18T09:46:26.717Z,34.42
2022-10-18T09:48:58.115Z,27.45
2022-10-18T09:51:28.793Z,26.90
2022-10-18T09:54:04.154Z,28.00
2022-10-18T09:56:39.403Z,27.65
2022-10-18T09:59:27.962Z,32.58
2022-10-18T10:01:56.200Z,27.42
2022-10-18T10:04:22.702Z,20.80
2022-10-18T10:06:50.077Z,30.45
2022-10-18T10:09:18.511Z,26.30
2022-10-18T10:11:47.398Z,25.83
2022-10-18T10:19:27.900Z,24.38
2022-10-18T10:21:58.670Z,21.00
2022-10-18T10:24:33.901Z,24.70
2022-10-18T10:27:03.138Z,22.23
2022-10-18T10:29:51.914Z,19.33
2022-10-18T10:32:21.163Z,24.05
2022-10-18T10:34:49.418Z,21.35
2022-10-18T10:37:31.946Z,23.05
2022-10-18T10:40:17.783Z,22.25
2022-10-18T10:43:18.199Z,23.10
2022-10-18T10:45:57.946Z,21.55
2022-10-18T10:48:27.824Z,17.38
2022-10-18T10:51:03.108Z,22.70
2022-10-18T10:53:37.854Z,20.95
2022-10-18T10:56:06.185Z,19.83
2022-10-18T10:58:37.126Z,18.63
2022-10-18T11:01:20.196Z,20.08
2022-10-18T11:03:48.671Z,18.90
2022-10-18T11:06:46.124Z,18.40
2022-10-18T11:09:27.499Z,17.23
2022-10-18T11:12:03.606Z,17.08
2022-10-18T11:14:36.659Z,18.55
2022-10-18T11:17:12.721Z,19.92
2022-10-18T11:19:56.315Z,19.92
2022-10-18T11:22:28.530Z,20.65
2022-10-18T11:24:55.625Z,13.27
2022-10-18T11:27:26.548Z,12.60
2022-10-18T11:30:19.638Z,16.08
2022-10-18T11:32:54.835Z,16.00
2022-10-18T11:35:33.907Z,15.20
2022-10-18T11:38:15.463Z,13.07
2022-10-18T11:40:52.633Z,13.95
2022-10-18T11:43:30.371Z,16.50
2022-10-18T11:46:13.404Z,14.45
2022-10-18T11:49:05.724Z,22.23
2022-10-18T11:52:06.639Z,12.38
2022-10-18T11:54:51.903Z,16.27
2022-10-18T11:57:36.182Z,13.40
2022-10-18T12:00:14.810Z,11.85
2022-10-18T12:02:54.706Z,10.77
2022-10-18T12:05:24.327Z,12.60
2022-10-18T12:08:05.508Z,14.98
2022-10-18T12:10:45.940Z,12.77
2022-10-18T12:13:27.887Z,19.02
2022-10-18T12:15:55.455Z,10.35
2022-10-18T12:18:25.290Z,13.55
2022-10-18T12:20:54.591Z,17.15
2022-10-18T12:23:33.679Z,16.13
2022-10-18T12:26:04.360Z,11.15
2022-10-18T12:28:39.598Z,12.88
2022-10-18T12:31:13.014Z,12.20
2022-10-18T12:33:44.974Z,10.52
2022-10-18T12:36:18.770Z,11.88
2022-10-18T12:38:48.664Z,14.77
2022-10-18T12:41:20.997Z,9.13
2022-10-18T12:43:51.803Z,10.88
2022-10-18T12:46:18.289Z,8.57
2022-10-18T12:48:59.743Z,8.23
2022-10-18T12:51:26.205Z,13.35
2022-10-18T12:54:08.659Z,10.32
2022-10-18T12:56:39.431Z,6.93
2022-10-18T12:59:40.548Z,8.82
2022-10-18T13:02:24.068Z,8.20
2022-10-18T13:04:50.654Z,9.90
2022-10-18T13:07:33.673Z,13.05
2022-10-18T13:10:33.596Z,7.30
2022-10-18T13:13:39.719Z,6.95
2022-10-18T13:16:29.232Z,7.65
2022-10-18T13:18:58.642Z,9.43
2022-10-18T13:21:44.318Z,8.10
2022-10-18T13:24:26.573Z,8.02
2022-10-18T13:27:24.507Z,4.57
2022-10-18T13:30:09.926Z,8.25
2022-10-18T13:32:48.027Z,8.45
2022-10-18T13:35:48.730Z,8.55
2022-10-18T13:38:46.556Z,12.60
2022-10-18T13:41:15.752Z,8.57
2022-10-18T13:44:15.123Z,7.03
2022-10-18T13:47:18.005Z,6.95
2022-10-18T13:50:14.253Z,9.70
2022-10-18T13:53:07.404Z,11.50
2022-10-18T13:55:49.815Z,8.48
2022-10-18T13:58:30.292Z,8.77
2022-10-18T14:01:07.565Z,8.93
2022-10-18T14:04:06.396Z,7.78
2022-10-18T14:06:35.193Z,9.85
2022-10-18T14:09:14.190Z,11.27
2022-10-18T14:11:56.583Z,4.72
2022-10-18T14:14:30.179Z,6.35
2022-10-18T14:17:03.449Z,8.30
2022-10-18T14:19:36.318Z,6.05
2022-10-18T14:22:10.322Z,4.20
2022-10-18T14:24:40.428Z,7.90
2022-10-18T14:27:11.536Z,11.43
2022-10-18T14:29:38.552Z,8.75
2022-10-18T14:32:09.300Z,9.52
2022-10-18T14:34:36.349Z,6.10
2022-10-18T14:37:03.141Z,4.88
2022-10-18T14:39:29.563Z,5.25
2022-10-18T14:41:58.602Z,4.43
2022-10-18T14:44:27.423Z,8.70
2022-10-18T14:47:00.412Z,6.80
2022-10-18T14:49:26.917Z,9.52
2022-10-18T14:51:55.750Z,7.35
2022-10-18T14:54:26.239Z,8.82
2022-10-18T14:56:57.063Z,3.92
2022-10-18T14:59:26.261Z,5.40
2022-10-18T15:01:56.015Z,4.07
2022-10-18T15:04:27.821Z,8.88
2022-10-18T15:06:55.800Z,4.87
2022-10-18T15:09:23.722Z,5.47
2022-10-18T15:11:50.616Z,5.43
2022-10-18T15:14:19.931Z,4.53
2022-10-18T15:16:48.772Z,8.40
2022-10-18T15:19:33.355Z,3.67
2022-10-18T15:22:31.390Z,8.07
2022-10-18T15:25:26.768Z,8.25
2022-10-18T15:27:56.568Z,5.63
2022-10-18T15:30:27.104Z,4.55
2022-10-18T15:32:55.718Z,5.38
2022-10-18T15:35:26.577Z,5.20
2022-10-18T15:37:54.514Z,4.53
2022-10-18T15:40:37.310Z,5.45
2022-10-18T15:43:06.282Z,7.03
2022-10-18T15:45:45.295Z,10.75
2022-10-18T15:48:22.007Z,8.02
2022-10-18T15:50:50.838Z,9.98
2022-10-18T15:53:31.166Z,7.88
2022-10-18T15:55:59.994Z,8.70
2022-10-18T15:58:28.872Z,7.30
2022-10-18T16:00:59.828Z,8.93
2022-10-18T16:03:27.690Z,7.20
2022-10-18T16:05:58.418Z,11.57
2022-10-18T16:08:27.251Z,7.35
2022-10-18T16:10:53.714Z,7.95
2022-10-18T16:13:20.470Z,9.00
2022-10-18T16:15:46.939Z,7.88
2022-10-18T16:18:17.338Z,8.85
2022-10-18T16:20:44.106Z,10.20
2022-10-18T16:23:17.484Z,9.23
2022-10-18T16:25:43.952Z,7.97
2022-10-18T16:28:14.291Z,7.43
2022-10-18T16:30:43.443Z,7.60
2022-10-18T16:33:09.870Z,14.00
2022-10-18T16:35:37.790Z,10.63
2022-10-18T16:38:04.269Z,8.77
2022-10-18T16:40:30.679Z,7.97
2022-10-18T16:42:57.116Z,14.88
2022-10-18T16:45:23.613Z,9.70
2022-10-18T16:47:50.099Z,10.70
2022-10-18T16:50:19.036Z,8.10
2022-10-18T16:52:46.805Z,11.75
2022-10-18T16:55:13.464Z,10.05
2022-10-18T16:57:39.909Z,10.23
2022-10-18T17:00:07.371Z,8.90
2022-10-18T17:02:34.008Z,10.75
2022-10-18T17:05:00.760Z,11.50
2022-10-18T17:07:27.191Z,6.03
2022-10-18T17:09:54.912Z,9.95
2022-10-18T17:12:21.319Z,18.25
2022-10-18T17:14:47.780Z,9.77
2022-10-18T17:17:14.223Z,8.18
2022-10-18T17:19:40.641Z,7.88
2022-10-18T17:22:07.081Z,10.27
2022-10-18T17:24:33.487Z,8.13
2022-10-18T17:27:01.439Z,8.38
2022-10-18T17:29:27.894Z,9.30
2022-10-18T17:31:54.288Z,11.30
2022-10-18T17:34:21.505Z,11.02
2022-10-18T17:36:48.112Z,6.55
2022-10-18T17:39:14.541Z,9.48
2022-10-18T17:41:40.969Z,8.32
2022-10-18T17:44:08.714Z,10.63
2022-10-18T17:46:35.579Z,8.77
2022-10-18T17:49:02.847Z,13.15
2022-10-18T17:51:29.362Z,11.27
2022-10-18T17:53:55.919Z,10.35
2022-10-18T17:56:22.380Z,11.63
2022-10-18T17:58:50.361Z,8.85
2022-10-18T18:01:20.944Z,10.20
2022-10-18T18:03:47.666Z,6.47
2022-10-18T18:06:16.191Z,8.55
2022-10-18T18:08:42.632Z,9.73
2022-10-18T18:11:09.058Z,9.15
2022-10-18T18:13:35.512Z,10.88
2022-10-18T18:16:10.838Z,9.27
2022-10-18T18:18:38.776Z,11.52
2022-10-18T18:21:05.514Z,6.90
2022-10-18T18:23:32.238Z,12.63
2022-10-18T18:25:58.828Z,11.95
2022-10-18T18:28:25.321Z,9.10
2022-10-18T18:30:51.796Z,9.55
2022-10-18T18:33:18.269Z,9.38
2022-10-18T18:35:54.087Z,8.10
2022-10-18T18:38:20.534Z,8.68
2022-10-18T18:40:46.981Z,9.23
2022-10-18T18:43:28.212Z,11.05
2022-10-18T18:45:54.680Z,9.75
2022-10-18T18:48:21.099Z,9.48
2022-10-18T18:50:48.898Z,6.47
2022-10-18T18:53:15.592Z,11.15
2022-10-18T18:55:42.029Z,8.40
2022-10-18T18:58:08.494Z,6.22
2022-10-18T19:00:40.382Z,7.70
2022-10-18T19:03:10.405Z,11.88
2022-10-18T19:05:37.081Z,7.18
2022-10-18T19:08:05.738Z,9.52
2022-10-18T19:10:32.281Z,8.88
2022-10-18T19:12:59.047Z,8.23
2022-10-18T19:15:25.664Z,9.18
2022-10-18T19:17:52.100Z,5.55
2022-10-18T19:20:18.753Z,7.80
2022-10-18T19:22:45.453Z,10.18
2022-10-18T19:25:13.204Z,10.80
2022-10-18T19:27:39.745Z,9.77
2022-10-18T19:30:10.798Z,5.43
2022-10-18T19:32:37.235Z,11.13
2022-10-18T19:35:04.078Z,8.52
2022-10-18T19:37:30.627Z,8.77
2022-10-18T19:39:57.181Z,6.40
2022-10-18T19:42:27.511Z,6.47
2022-10-18T19:44:56.875Z,8.05
2022-10-18T19:47:23.310Z,6.60
2022-10-18T19:49:49.740Z,8.90
2022-10-18T19:52:16.182Z,6.75
2022-10-18T19:54:42.628Z,6.15
2022-10-18T19:57:09.151Z,8.73
2022-10-18T19:59:36.989Z,10.32
2022-10-18T20:02:03.487Z,8.75
2022-10-18T20:04:30.142Z,10.77
2022-10-18T20:06:56.568Z,10.48
2022-10-18T20:09:22.992Z,9.65
2022-10-18T20:11:49.413Z,12.73
2022-10-18T20:14:15.825Z,11.30
2022-10-18T20:16:43.619Z,8.55
2022-10-18T20:19:10.538Z,11.18
2022-10-18T20:21:37.236Z,10.02
2022-10-18T20:24:04.932Z,11.18
2022-10-18T20:26:31.996Z,10.82
2022-10-18T20:28:58.614Z,11.05
2022-10-18T20:31:26.668Z,11.25
2022-10-18T20:33:56.089Z,9.60
2022-10-18T20:36:22.833Z,9.05
2022-10-18T20:38:49.279Z,10.93
2022-10-18T20:41:21.144Z,5.55
2022-10-18T20:43:51.294Z,9.85
2022-10-18T20:46:17.964Z,9.48
2022-10-18T20:48:44.381Z,10.68
2022-10-18T20:51:12.513Z,10.55
2022-10-18T20:53:39.808Z,11.85
2022-10-18T20:56:08.433Z,8.73
2022-10-18T20:58:36.167Z,9.25
2022-10-18T21:01:07.212Z,11.38
2022-10-18T21:03:36.337Z,7.47
2022-10-18T21:06:08.462Z,13.48
2022-10-18T21:08:36.322Z,10.55
2022-10-18T21:11:03.776Z,8.70
2022-10-18T21:13:30.438Z,12.10
2022-10-18T21:15:57.782Z,10.38
2022-10-18T21:18:25.071Z,11.93
2022-10-18T21:20:51.907Z,8.50
2022-10-18T21:23:18.601Z,10.93
2022-10-18T21:25:46.686Z,9.65
2022-10-18T21:28:13.610Z,13.32
2022-10-18T21:30:40.264Z,11.70
2022-10-18T21:33:07.028Z,10.95
2022-10-18T21:35:35.525Z,15.30
2022-10-18T21:38:02.018Z,7.28
2022-10-18T21:40:28.518Z,12.35
2022-10-18T21:42:56.308Z,12.55
2022-10-18T21:45:22.711Z,6.40
2022-10-18T21:47:49.388Z,16.48
2022-10-18T21:50:16.144Z,10.95
2022-10-18T21:52:42.567Z,7.78
2022-10-18T21:55:09.483Z,10.80
2022-10-18T22:00:12.368Z,11.02
2022-10-18T22:02:38.804Z,8.20
2022-10-18T22:05:08.310Z,19.48
2022-10-18T22:07:37.895Z,10.95
2022-10-18T22:10:04.753Z,8.93
2022-10-18T22:12:31.241Z,12.30
2022-10-18T22:14:57.696Z,9.25
2022-10-18T22:17:25.434Z,10.13
2022-10-18T22:19:51.816Z,11.93
2022-10-18T22:22:18.232Z,14.15
2022-10-18T22:24:44.616Z,9.40
2022-10-18T22:27:11.042Z,13.20
2022-10-18T22:29:37.683Z,11.82
2022-10-18T22:32:04.210Z,12.15
2022-10-18T22:34:31.930Z,7.65
2022-10-18T22:36:58.361Z,7.80
2022-10-18T22:39:24.878Z,14.82
2022-10-18T22:41:51.343Z,12.70
2022-10-18T22:44:17.746Z,9.02
2022-10-18T22:46:44.133Z,7.65
2022-10-18T22:49:11.546Z,9.15
2022-10-18T22:51:39.612Z,6.43
2022-10-18T22:54:06.164Z,3.80
2022-10-18T22:56:32.704Z,6.55
2022-10-18T22:58:59.121Z,5.40
2022-10-18T23:01:25.539Z,8.80
2022-10-18T23:03:52.933Z,9.57
2022-10-18T23:06:22.319Z,6.32
2022-10-18T23:08:51.120Z,6.25
2022-10-18T23:11:18.387Z,12.18
2022-10-18T23:13:45.283Z,7.55
2022-10-18T23:16:11.839Z,7.72
2022-10-18T23:21:08.214Z,6.97
2022-10-18T23:23:36.660Z,6.57
2022-10-18T23:26:06.947Z,7.40
2022-10-18T23:28:34.369Z,7.15
2022-10-18T23:31:05.325Z,8.20
2022-10-18T23:33:31.720Z,4.10
2022-10-18T23:35:59.186Z,6.70
2022-10-18T23:38:25.612Z,5.65
2022-10-18T23:40:52.015Z,5.22
2022-10-18T23:43:19.907Z,5.45
2022-10-18T23:48:17.871Z,7.28
2022-10-18T23:50:44.311Z,4.45
2022-10-18T23:53:11.067Z,7.50
2022-10-18T23:55:37.490Z,5.25
2022-10-18T23:58:03.998Z,7.38
